Time;durP1;ratioP1;P1;durP2;ratioP2;P2;SDS_P1;SDS_P2;PMS_P1;PMS_P2;Temp;Humidity;BMP_temperature;BMP_pressure;BME280_temperature;BME280_humidity;BME280_pressure;Samples;Min_cycle;Max_cycle;Signal;HPM_P1;HPM_P2
2022/06/08 00:01:34;;;;;;;0.00;0.00;;;;;;;;;;5011405;28;20078;-58
2022/06/08 00:04:01;;;;;;;0.00;0.00;;;;;;;;;;5020287;28;20046;-58
2022/06/08 00:06:27;;;;;;;0.00;0.00;;;;;;;;;;5015929;28;20579;-59
2022/06/08 00:08:54;;;;;;;0.00;0.00;;;;;;;;;;5012514;28;20218;-59
2022/06/08 00:11:20;;;;;;;0.00;0.00;;;;;;;;;;5010915;28;20054;-59
2022/06/08 00:13:47;;;;;;;0.00;0.00;;;;;;;;;;5011271;28;20109;-59
2022/06/08 00:16:14;;;;;;;0.00;0.00;;;;;;;;;;5011775;28;20054;-59
2022/06/08 00:18:43;;;;;;;0.00;0.00;;;;;;;;;;5020904;28;20228;-61
2022/06/08 00:21:10;;;;;;;0.28;0.05;;;;;;;;;;5014895;28;20453;-59
2022/06/08 00:23:37;;;;;;;0.00;0.00;;;;;;;;;;5011776;28;20066;-58
2022/06/08 00:26:04;;;;;;;0.00;0.00;;;;;;;;;;5017190;28;20133;-58
2022/06/08 00:28:31;;;;;;;0.00;0.00;;;;;;;;;;5018202;28;20085;-59
2022/06/08 00:30:58;;;;;;;0.00;0.00;;;;;;;;;;5010643;28;20481;-59
2022/06/08 00:33:25;;;;;;;0.65;0.38;;;;;;;;;;5010658;28;20543;-59
2022/06/08 00:35:51;;;;;;;0.00;0.00;;;;;;;;;;5010720;28;20094;-59
2022/06/08 00:38:18;;;;;;;0.00;0.00;;;;;;;;;;5010011;28;20086;-59
2022/06/08 00:40:53;;;;;;;0.00;0.00;;;;;;;;;;5018704;28;20100;-57
2022/06/08 00:43:19;;;;;;;0.00;0.00;;;;;;;;;;5030130;28;20128;-59
2022/06/08 00:45:46;;;;;;;0.10;0.10;;;;;;;;;;5016040;28;20109;-58
2022/06/08 00:48:13;;;;;;;0.20;0.10;;;;;;;;;;5010683;28;20055;-59
2022/06/08 00:50:44;;;;;;;0.00;0.00;;;;;;;;;;5016259;28;20070;-58
2022/06/08 00:53:11;;;;;;;0.00;0.00;;;;;;;;;;5011063;28;20105;-58
2022/06/08 00:55:39;;;;;;;0.00;0.00;;;;;;;;;;5009907;28;20493;-58
2022/06/08 00:58:06;;;;;;;0.00;0.00;;;;;;;;;;5017356;28;20050;-58
2022/06/08 01:00:34;;;;;;;0.00;0.00;;;;;;;;;;5014833;28;20101;-59
2022/06/08 01:03:01;;;;;;;0.00;0.00;;;;;;;;;;5011023;28;20282;-58
2022/06/08 01:05:32;;;;;;;0.00;0.00;;;;;;;;;;5014304;28;20058;-59
2022/06/08 01:08:01;;;;;;;1.55;1.35;;;;;;;;;;5016834;28;20097;-59
2022/06/08 01:10:29;;;;;;;1.75;0.45;;;;;;;;;;5017844;28;20582;-58
2022/06/08 01:13:01;;;;;;;0.00;0.00;;;;;;;;;;5011113;28;20125;-59
2022/06/08 01:15:27;;;;;;;0.00;0.00;;;;;;;;;;5011331;28;20062;-59
2022/06/08 01:17:54;;;;;;;0.00;0.00;;;;;;;;;;5016373;28;20108;-59
2022/06/08 01:20:20;;;;;;;0.00;0.00;;;;;;;;;;5019047;28;20082;-59
2022/06/08 01:22:47;;;;;;;0.00;0.00;;;;;;;;;;5010411;28;20788;-59
2022/06/08 01:25:15;;;;;;;0.00;0.00;;;;;;;;;;5009843;28;20066;-59
2022/06/08 01:27:45;;;;;;;0.20;0.10;;;;;;;;;;5008635;28;20058;-59
2022/06/08 01:30:12;;;;;;;0.00;0.00;;;;;;;;;;5014396;28;20062;-58
2022/06/08 01:32:39;;;;;;;0.00;0.00;;;;;;;;;;5009471;28;20051;-59
2022/06/08 01:35:11;;;;;;;1.02;0.25;;;;;;;;;;5010242;28;20156;-59
2022/06/08 01:37:38;;;;;;;0.00;0.00;;;;;;;;;;5010288;28;20062;-59
2022/06/08 01:40:19;;;;;;;0.20;0.10;;;;;;;;;;5009967;28;20533;-58
2022/06/08 01:42:54;;;;;;;0.03;0.03;;;;;;;;;;5019358;28;20671;-58
2022/06/08 01:45:29;;;;;;;0.00;0.00;;;;;;;;;;5010530;28;20125;-59
2022/06/08 01:47:59;;;;;;;0.00;0.00;;;;;;;;;;5016475;28;20050;-59
2022/06/08 01:50:32;;;;;;;0.00;0.00;;;;;;;;;;5019564;28;20059;-59
2022/06/08 01:53:03;;;;;;;0.00;0.00;;;;;;;;;;5019435;28;20054;-59
2022/06/08 01:55:37;;;;;;;0.00;0.00;;;;;;;;;;5013814;28;20117;-58
2022/06/08 01:58:07;;;;;;;0.22;0.15;;;;;;;;;;5008919;28;20504;-59
2022/06/08 02:00:43;;;;;;;0.00;0.00;;;;;;;;;;5009940;28;20050;-58
2022/06/08 02:03:16;;;;;;;0.00;0.00;;;;;;;;;;5009816;28;20598;-59
2022/06/08 02:05:53;;;;;;;0.20;0.10;;;;;;;;;;5008441;28;20152;-59
2022/06/08 02:08:22;;;;;;;0.10;0.05;;;;;;;;;;5018060;28;20053;-59
2022/06/08 02:11:15;;;;;;;0.40;0.22;;;;;;;;;;5020220;28;20556;-59
2022/06/08 02:13:45;;;;;;;0.00;0.00;;;;;;;;;;5016156;28;20138;-59
2022/06/08 02:16:24;;;;;;;0.00;0.00;;;;;;;;;;5008349;28;20050;-58
2022/06/08 02:18:57;;;;;;;0.00;0.00;;;;;;;;;;5011681;28;20505;-58
2022/06/08 02:21:27;;;;;;;0.28;0.20;;;;;;;;;;5009694;28;20521;-58
2022/06/08 02:23:59;;;;;;;0.10;0.03;;;;;;;;;;5006903;28;20113;-58
2022/06/08 02:26:32;;;;;;;0.00;0.00;;;;;;;;;;5009779;28;20164;-59
2022/06/08 02:29:19;;;;;;;0.00;0.00;;;;;;;;;;5010427;28;20101;-58
2022/06/08 02:31:54;;;;;;;0.00;0.00;;;;;;;;;;5009812;28;20054;-58
2022/06/08 02:34:31;;;;;;;0.00;0.00;;;;;;;;;;5009036;28;20267;-58
2022/06/08 02:37:02;;;;;;;0.00;0.00;;;;;;;;;;5016322;28;20109;-58
2022/06/08 02:39:35;;;;;;;0.22;0.10;;;;;;;;;;5008163;28;20105;-58
2022/06/08 02:42:04;;;;;;;0.00;0.00;;;;;;;;;;5009642;28;20117;-58
2022/06/08 02:44:32;;;;;;;0.10;0.10;;;;;;;;;;5009791;28;20086;-58
2022/06/08 02:47:10;;;;;;;0.00;0.00;;;;;;;;;;5009201;28;20062;-58
2022/06/08 02:49:37;;;;;;;0.00;0.00;;;;;;;;;;5008552;28;20101;-58
2022/06/08 02:52:05;;;;;;;0.00;0.00;;;;;;;;;;5008359;28;20136;-58
2022/06/08 02:54:31;;;;;;;0.00;0.00;;;;;;;;;;5008686;28;20089;-58
2022/06/08 02:57:00;;;;;;;0.00;0.00;;;;;;;;;;5008091;28;20105;-58
2022/06/08 02:59:32;;;;;;;0.10;0.10;;;;;;;;;;5009383;28;20054;-58
2022/06/08 03:02:02;;;;;;;0.00;0.00;;;;;;;;;;5009045;28;20117;-58
2022/06/08 03:04:51;;;;;;;0.00;0.00;;;;;;;;;;5006769;28;20060;-58
2022/06/08 03:07:29;;;;;;;0.00;0.00;;;;;;;;;;5011052;28;20081;-58
2022/06/08 03:09:58;;;;;;;0.30;0.17;;;;;;;;;;5008896;28;20086;-58
2022/06/08 03:12:32;;;;;;;0.20;0.20;;;;;;;;;;5008891;28;20054;-58
2022/06/08 03:14:59;;;;;;;0.00;0.00;;;;;;;;;;5008734;28;20055;-58
2022/06/08 03:17:30;;;;;;;0.20;0.10;;;;;;;;;;5010575;28;20611;-58
2022/06/08 03:19:56;;;;;;;0.00;0.00;;;;;;;;;;5009471;28;20409;-59
2022/06/08 03:22:22;;;;;;;0.10;0.10;;;;;;;;;;5009169;28;20066;-58
2022/06/08 03:24:49;;;;;;;0.00;0.00;;;;;;;;;;5008362;28;20110;-58
2022/06/08 03:27:15;;;;;;;0.08;0.05;;;;;;;;;;5008796;28;20054;-58
2022/06/08 03:29:42;;;;;;;0.00;0.00;;;;;;;;;;5007697;28;20054;-58
2022/06/08 03:32:08;;;;;;;0.00;0.00;;;;;;;;;;5007961;28;20105;-58
2022/06/08 03:34:34;;;;;;;0.47;0.28;;;;;;;;;;5008413;28;20085;-58
2022/06/08 03:37:01;;;;;;;0.75;0.47;;;;;;;;;;5006501;28;20073;-58
2022/06/08 03:39:27;;;;;;;0.00;0.00;;;;;;;;;;5015522;28;20058;-58
2022/06/08 03:41:54;;;;;;;0.00;0.00;;;;;;;;;;5027845;28;20054;-58
2022/06/08 03:44:20;;;;;;;1.45;0.22;;;;;;;;;;5028614;28;20096;-58
2022/06/08 03:46:53;;;;;;;0.00;0.00;;;;;;;;;;5012616;28;20141;-59
2022/06/08 03:49:20;;;;;;;0.00;0.00;;;;;;;;;;5008951;28;20113;-58
2022/06/08 03:51:46;;;;;;;0.35;0.32;;;;;;;;;;5017446;28;20081;-58
2022/06/08 03:54:16;;;;;;;0.10;0.00;;;;;;;;;;5015933;28;20148;-58
2022/06/08 03:56:44;;;;;;;0.00;0.00;;;;;;;;;;5007994;28;20058;-58
2022/06/08 03:59:11;;;;;;;0.00;0.00;;;;;;;;;;5014279;28;20086;-58
2022/06/08 04:01:38;;;;;;;0.00;0.00;;;;;;;;;;5008622;28;20579;-59
2022/06/08 04:04:05;;;;;;;0.00;0.00;;;;;;;;;;5016347;28;20132;-59
2022/06/08 04:06:31;;;;;;;0.00;0.00;;;;;;;;;;5022524;28;20112;-59
2022/06/08 04:08:58;;;;;;;0.00;0.00;;;;;;;;;;5007495;28;20078;-59
2022/06/08 04:11:24;;;;;;;0.20;0.10;;;;;;;;;;5016561;28;20104;-58
2022/06/08 04:13:50;;;;;;;0.03;0.03;;;;;;;;;;5027342;28;20081;-58
2022/06/08 04:16:17;;;;;;;0.00;0.00;;;;;;;;;;5013644;28;20116;-59
2022/06/08 04:18:44;;;;;;;0.00;0.00;;;;;;;;;;5015692;28;20143;-59
2022/06/08 04:21:11;;;;;;;0.08;0.08;;;;;;;;;;5014609;28;20058;-59
2022/06/08 04:23:39;;;;;;;0.00;0.00;;;;;;;;;;5016274;28;20859;-59
2022/06/08 04:26:06;;;;;;;0.00;0.00;;;;;;;;;;5009311;28;20059;-59
2022/06/08 04:28:32;;;;;;;0.10;0.10;;;;;;;;;;5012215;28;20074;-59
2022/06/08 04:30:59;;;;;;;0.43;0.20;;;;;;;;;;5020003;28;20058;-59
2022/06/08 04:33:26;;;;;;;0.00;0.00;;;;;;;;;;5007644;28;20054;-59
2022/06/08 04:35:52;;;;;;;2.08;0.10;;;;;;;;;;5007656;28;20054;-61
2022/06/08 04:38:19;;;;;;;0.00;0.00;;;;;;;;;;5021258;28;20081;-59
2022/06/08 04:40:46;;;;;;;1.55;0.32;;;;;;;;;;5008271;28;20058;-59
2022/06/08 04:43:12;;;;;;;0.00;0.00;;;;;;;;;;5007502;28;20105;-59
2022/06/08 04:45:39;;;;;;;0.40;0.40;;;;;;;;;;5007164;28;20539;-60
2022/06/08 04:48:06;;;;;;;0.73;0.28;;;;;;;;;;5010248;28;20093;-58
2022/06/08 04:50:32;;;;;;;0.00;0.00;;;;;;;;;;5010940;28;20090;-59
2022/06/08 04:52:59;;;;;;;0.00;0.00;;;;;;;;;;5010271;28;20517;-59
2022/06/08 04:55:26;;;;;;;0.00;0.00;;;;;;;;;;5011276;28;20062;-59
2022/06/08 04:57:52;;;;;;;0.00;0.00;;;;;;;;;;5010436;28;20495;-59
2022/06/08 05:00:22;;;;;;;0.10;0.10;;;;;;;;;;5019178;28;20100;-59
2022/06/08 05:02:50;;;;;;;0.00;0.00;;;;;;;;;;5012046;28;20059;-59
2022/06/08 05:05:22;;;;;;;0.00;0.00;;;;;;;;;;5020055;28;20059;-59
2022/06/08 05:07:49;;;;;;;0.00;0.00;;;;;;;;;;5013202;28;20058;-59
2022/06/08 05:10:16;;;;;;;0.20;0.10;;;;;;;;;;5010776;28;20109;-59
2022/06/08 05:12:43;;;;;;;0.20;0.20;;;;;;;;;;5014421;28;20148;-59
2022/06/08 05:15:14;;;;;;;0.00;0.00;;;;;;;;;;5010380;28;20062;-59
2022/06/08 05:17:40;;;;;;;0.00;0.00;;;;;;;;;;5019624;28;20058;-59
2022/06/08 05:20:07;;;;;;;0.00;0.00;;;;;;;;;;5020805;28;20058;-59
2022/06/08 05:22:34;;;;;;;0.00;0.00;;;;;;;;;;5010451;28;20086;-59
2022/06/08 05:25:03;;;;;;;0.13;0.08;;;;;;;;;;5010892;28;20058;-59
2022/06/08 05:27:30;;;;;;;0.10;0.10;;;;;;;;;;5019191;28;20077;-59
2022/06/08 05:29:56;;;;;;;0.08;0.08;;;;;;;;;;5008794;28;20535;-59
2022/06/08 05:32:22;;;;;;;0.00;0.00;;;;;;;;;;5011815;28;20540;-59
2022/06/08 05:34:49;;;;;;;0.00;0.00;;;;;;;;;;5013062;28;20058;-59
2022/06/08 05:37:15;;;;;;;0.00;0.00;;;;;;;;;;5016689;28;20172;-59
2022/06/08 05:39:42;;;;;;;0.08;0.03;;;;;;;;;;5011670;28;20148;-59
2022/06/08 05:42:08;;;;;;;0.00;0.00;;;;;;;;;;5013533;28;20058;-59
2022/06/08 05:44:35;;;;;;;0.00;0.00;;;;;;;;;;5023361;28;20057;-59
2022/06/08 05:47:02;;;;;;;0.00;0.00;;;;;;;;;;5008807;28;20086;-59
2022/06/08 05:49:32;;;;;;;0.00;0.00;;;;;;;;;;5017612;28;20505;-59
2022/06/08 05:51:59;;;;;;;0.00;0.00;;;;;;;;;;5016434;28;20054;-59
2022/06/08 05:54:25;;;;;;;0.00;0.00;;;;;;;;;;5022862;28;20140;-60
2022/06/08 05:56:52;;;;;;;0.00;0.00;;;;;;;;;;5009679;28;20085;-60
2022/06/08 05:59:18;;;;;;;0.00;0.00;;;;;;;;;;5008417;28;20060;-59
2022/06/08 06:01:44;;;;;;;0.45;0.25;;;;;;;;;;5014834;28;20114;-59
2022/06/08 06:04:12;;;;;;;0.00;0.00;;;;;;;;;;5021264;28;20596;-59
2022/06/08 06:06:43;;;;;;;0.10;0.10;;;;;;;;;;5021784;28;20080;-59
2022/06/08 06:09:10;;;;;;;0.00;0.00;;;;;;;;;;5014709;28;20054;-59
2022/06/08 06:11:37;;;;;;;0.00;0.00;;;;;;;;;;5018063;28;20560;-59
2022/06/08 06:14:04;;;;;;;0.00;0.00;;;;;;;;;;5009972;28;20050;-62
2022/06/08 06:16:31;;;;;;;0.10;0.00;;;;;;;;;;5013215;28;20147;-59
2022/06/08 06:18:57;;;;;;;0.00;0.00;;;;;;;;;;5014059;28;20058;-59
2022/06/08 06:21:25;;;;;;;0.10;0.10;;;;;;;;;;5005400;28;20113;-58
2022/06/08 06:23:52;;;;;;;0.93;0.63;;;;;;;;;;5017461;28;20057;-58
2022/06/08 06:26:19;;;;;;;0.00;0.00;;;;;;;;;;5011868;28;20113;-59
2022/06/08 06:28:46;;;;;;;0.00;0.00;;;;;;;;;;5011418;28;20498;-59
2022/06/08 06:31:25;;;;;;;0.00;0.00;;;;;;;;;;5010784;28;20054;-59
2022/06/08 06:33:52;;;;;;;0.15;0.15;;;;;;;;;;5015282;28;20136;-59
2022/06/08 06:36:18;;;;;;;0.00;0.00;;;;;;;;;;5013558;28;20129;-59
2022/06/08 06:38:44;;;;;;;0.00;0.00;;;;;;;;;;5010347;28;20089;-58
2022/06/08 06:41:14;;;;;;;0.00;0.00;;;;;;;;;;5013364;28;20117;-60
2022/06/08 06:43:40;;;;;;;0.00;0.00;;;;;;;;;;5018186;28;20135;-58
2022/06/08 06:46:08;;;;;;;0.00;0.00;;;;;;;;;;5028029;28;20509;-59
2022/06/08 06:48:36;;;;;;;0.10;0.10;;;;;;;;;;5011686;28;20592;-59
2022/06/08 06:51:03;;;;;;;0.00;0.00;;;;;;;;;;5015111;28;20068;-59
2022/06/08 06:53:29;;;;;;;0.00;0.00;;;;;;;;;;5013099;28;20572;-58
2022/06/08 06:55:56;;;;;;;0.20;0.13;;;;;;;;;;5009188;28;20054;-60
2022/06/08 06:58:22;;;;;;;0.00;0.00;;;;;;;;;;5020010;28;20493;-50
2022/06/08 07:00:51;;;;;;;0.00;0.00;;;;;;;;;;5012208;28;20893;-50
2022/06/08 07:03:18;;;;;;;0.00;0.00;;;;;;;;;;5016944;28;20050;-50
2022/06/08 07:05:44;;;;;;;0.52;0.40;;;;;;;;;;5010516;28;20145;-53
2022/06/08 07:08:11;;;;;;;0.10;0.10;;;;;;;;;;5017660;28;20054;-49
2022/06/08 07:10:37;;;;;;;0.20;0.10;;;;;;;;;;5011150;28;20161;-50
2022/06/08 07:13:04;;;;;;;0.00;0.00;;;;;;;;;;5010004;28;20084;-53
2022/06/08 07:15:31;;;;;;;0.00;0.00;;;;;;;;;;5015601;28;20121;-57
2022/06/08 07:17:57;;;;;;;0.00;0.00;;;;;;;;;;5013405;28;20109;-57
2022/06/08 07:20:24;;;;;;;0.00;0.00;;;;;;;;;;5022833;28;20046;-58
2022/06/08 07:22:50;;;;;;;0.00;0.00;;;;;;;;;;5015233;28;20054;-58
2022/06/08 07:25:18;;;;;;;0.00;0.00;;;;;;;;;;5018456;28;20058;-57
2022/06/08 07:27:44;;;;;;;0.00;0.00;;;;;;;;;;5007957;28;20058;-59
2022/06/08 07:30:11;;;;;;;0.55;0.55;;;;;;;;;;5014382;28;20352;-59
2022/06/08 07:32:37;;;;;;;0.00;0.00;;;;;;;;;;5013766;28;20520;-59
2022/06/08 07:35:05;;;;;;;0.00;0.00;;;;;;;;;;5015874;28;20113;-59
2022/06/08 07:37:31;;;;;;;0.00;0.00;;;;;;;;;;5007667;28;20133;-59
2022/06/08 07:39:58;;;;;;;0.00;0.00;;;;;;;;;;5006434;28;20117;-59
2022/06/08 07:42:24;;;;;;;0.65;0.65;;;;;;;;;;5010821;28;20117;-59
2022/06/08 07:44:50;;;;;;;0.30;0.20;;;;;;;;;;5013385;28;20085;-58
2022/06/08 07:47:17;;;;;;;0.00;0.00;;;;;;;;;;5008974;28;20642;-59
2022/06/08 07:49:49;;;;;;;0.00;0.00;;;;;;;;;;5008704;28;20046;-60
2022/06/08 07:52:17;;;;;;;0.00;0.00;;;;;;;;;;5011851;28;20138;-59
2022/06/08 07:54:44;;;;;;;;;;;;;;;;;;5021936;28;20465;-60
2022/06/08 07:57:16;;;;;;;0.00;0.00;;;;;;;;;;5006985;28;44314;-59
2022/06/08 07:59:42;;;;;;;0.00;0.00;;;;;;;;;;5022765;28;20488;-60
2022/06/08 08:02:08;;;;;;;0.00;0.00;;;;;;;;;;5013469;28;20050;-60
2022/06/08 08:04:35;;;;;;;0.00;0.00;;;;;;;;;;5008519;28;20085;-59
2022/06/08 08:07:02;;;;;;;0.00;0.00;;;;;;;;;;5007954;28;20047;-60
2022/06/08 08:09:31;;;;;;;0.10;0.10;;;;;;;;;;5021705;28;20521;-60
2022/06/08 08:11:58;;;;;;;0.05;0.05;;;;;;;;;;5027435;28;20500;-60
2022/06/08 08:14:24;;;;;;;0.20;0.20;;;;;;;;;;5016728;28;20105;-60
2022/06/08 08:16:50;;;;;;;0.00;0.00;;;;;;;;;;5016836;28;20054;-60
2022/06/08 08:19:18;;;;;;;0.00;0.00;;;;;;;;;;5011277;28;20055;-59
2022/06/08 08:21:46;;;;;;;0.10;0.10;;;;;;;;;;5008106;28;20067;-59
2022/06/08 08:24:12;;;;;;;0.32;0.10;;;;;;;;;;5025416;28;20128;-59
2022/06/08 08:26:39;;;;;;;0.00;0.00;;;;;;;;;;5011774;28;20120;-58
2022/06/08 08:29:05;;;;;;;0.00;0.00;;;;;;;;;;5023146;28;20528;-58
2022/06/08 08:31:32;;;;;;;0.10;0.10;;;;;;;;;;5015053;28;20073;-59
2022/06/08 08:33:59;;;;;;;0.00;0.00;;;;;;;;;;5026570;28;20054;-58
2022/06/08 08:36:25;;;;;;;0.00;0.00;;;;;;;;;;5026203;28;20108;-58
2022/06/08 08:38:52;;;;;;;0.03;0.03;;;;;;;;;;5029519;28;20105;-58
2022/06/08 08:44:20;;;;;;;0.00;0.00;;;;;;;;;;5030477;28;20649;-58
2022/06/08 08:46:51;;;;;;;0.00;0.00;;;;;;;;;;5030981;28;20058;-57
2022/06/08 08:49:23;;;;;;;0.00;0.00;;;;;;;;;;5030402;28;20046;-58
2022/06/08 08:51:54;;;;;;;0.45;0.45;;;;;;;;;;5019166;28;20128;-58
2022/06/08 08:54:35;;;;;;;0.10;0.10;;;;;;;;;;5023705;28;20053;-58
2022/06/08 08:57:10;;;;;;;0.00;0.00;;;;;;;;;;5030005;28;20053;-57
2022/06/08 08:59:42;;;;;;;0.00;0.00;;;;;;;;;;5029305;28;20088;-57
2022/06/08 09:02:13;;;;;;;0.00;0.00;;;;;;;;;;5028944;28;20982;-58
2022/06/08 09:04:47;;;;;;;0.00;0.00;;;;;;;;;;5030778;28;20084;-59
2022/06/08 09:07:15;;;;;;;0.00;0.00;;;;;;;;;;5025540;28;20069;-58
2022/06/08 09:09:42;;;;;;;0.08;0.08;;;;;;;;;;5020262;28;20054;-58
2022/06/08 09:12:15;;;;;;;0.00;0.00;;;;;;;;;;5028653;28;20554;-58
2022/06/08 09:14:57;;;;;;;0.00;0.00;;;;;;;;;;5010541;28;20161;-58
2022/06/08 09:17:34;;;;;;;0.75;0.45;;;;;;;;;;5010496;28;20050;-58
2022/06/08 09:20:03;;;;;;;0.10;0.10;;;;;;;;;;5028014;28;20050;-58
2022/06/08 09:22:31;;;;;;;0.30;0.30;;;;;;;;;;5023410;28;20057;-58
2022/06/08 09:25:03;;;;;;;0.00;0.00;;;;;;;;;;5009596;28;20054;-58
2022/06/08 09:27:34;;;;;;;0.10;0.10;;;;;;;;;;5010931;28;20058;-58
2022/06/08 09:30:00;;;;;;;0.00;0.00;;;;;;;;;;5009540;28;20109;-58
2022/06/08 09:32:35;;;;;;;0.20;0.10;;;;;;;;;;5011631;28;20054;-59
2022/06/08 09:35:14;;;;;;;0.28;0.22;;;;;;;;;;5010248;28;20050;-59
2022/06/08 09:37:41;;;;;;;0.00;0.00;;;;;;;;;;5010488;28;20113;-59
2022/06/08 09:43:00;;;;;;;0.10;0.00;;;;;;;;;;5010350;28;20054;-59
2022/06/08 09:45:27;;;;;;;0.10;0.10;;;;;;;;;;5010189;28;20058;-59
2022/06/08 09:51:28;;;;;;;0.10;0.10;;;;;;;;;;5028209;28;20150;-58
2022/06/08 09:54:03;;;;;;;0.45;0.45;;;;;;;;;;5009405;28;20113;-58
2022/06/08 09:56:30;;;;;;;0.00;0.00;;;;;;;;;;5009410;28;20054;-58
2022/06/08 09:59:14;;;;;;;0.10;0.10;;;;;;;;;;5009835;28;20535;-59
2022/06/08 10:01:43;;;;;;;0.00;0.00;;;;;;;;;;5018355;28;20090;-58
2022/06/08 10:04:26;;;;;;;0.00;0.00;;;;;;;;;;5009577;28;20097;-58
2022/06/08 10:07:10;;;;;;;0.90;0.85;;;;;;;;;;5009677;28;20058;-58
2022/06/08 10:09:40;;;;;;;0.10;0.10;;;;;;;;;;5012912;28;20073;-59
2022/06/08 10:12:17;;;;;;;0.10;0.10;;;;;;;;;;5020498;28;20113;-58
2022/06/08 10:14:53;;;;;;;0.00;0.00;;;;;;;;;;5029519;28;20505;-59
2022/06/08 10:17:30;;;;;;;0.00;0.00;;;;;;;;;;5013696;28;20657;-59
2022/06/08 10:20:06;;;;;;;0.00;0.00;;;;;;;;;;5009715;28;20445;-59
2022/06/08 10:22:38;;;;;;;0.00;0.00;;;;;;;;;;5008869;28;20094;-58
2022/06/08 10:25:04;;;;;;;0.00;0.00;;;;;;;;;;5014481;28;20105;-59
2022/06/08 10:27:33;;;;;;;0.40;0.25;;;;;;;;;;5011977;28;20117;-59
2022/06/08 10:30:09;;;;;;;0.10;0.10;;;;;;;;;;5013033;28;20082;-59
2022/06/08 10:32:42;;;;;;;0.10;0.10;;;;;;;;;;5029660;28;20105;-59
2022/06/08 10:35:15;;;;;;;0.65;0.08;;;;;;;;;;5021506;28;20088;-59
2022/06/08 10:37:42;;;;;;;0.00;0.00;;;;;;;;;;5018792;28;20437;-59
2022/06/08 10:40:13;;;;;;;0.00;0.00;;;;;;;;;;5012237;28;20059;-58
2022/06/08 10:42:42;;;;;;;0.00;0.00;;;;;;;;;;5007554;28;20059;-59
2022/06/08 10:45:22;;;;;;;0.00;0.00;;;;;;;;;;5007814;28;20622;-59
2022/06/08 10:47:54;;;;;;;0.00;0.00;;;;;;;;;;5017761;28;20050;-59
2022/06/08 10:50:28;;;;;;;0.00;0.00;;;;;;;;;;5011483;28;20061;-59
2022/06/08 10:54:53;;;;;;;0.00;0.00;;;;;;;;;;5019490;28;20141;-58
2022/06/08 10:55:41;;;;;;;0.10;0.10;;;;;;;;;;5027799;28;20701;-59
2022/06/08 10:58:12;;;;;;;2.40;0.77;;;;;;;;;;5019606;28;20062;-59
2022/06/08 11:00:48;;;;;;;0.00;0.00;;;;;;;;;;5029025;28;20105;-59
2022/06/08 11:03:32;;;;;;;1.08;0.22;;;;;;;;;;5028149;28;20153;-59
2022/06/08 11:05:59;;;;;;;0.00;0.00;;;;;;;;;;5026866;28;20093;-58
2022/06/08 11:08:43;;;;;;;0.00;0.00;;;;;;;;;;5020231;28;20137;-58
2022/06/08 11:11:10;;;;;;;0.00;0.00;;;;;;;;;;5008890;28;20090;-59
2022/06/08 11:13:49;;;;;;;0.10;0.00;;;;;;;;;;5009463;28;20086;-58
2022/06/08 11:16:30;;;;;;;0.10;0.10;;;;;;;;;;5017930;28;20058;-58
2022/06/08 11:19:00;;;;;;;0.00;0.00;;;;;;;;;;5013056;28;20078;-58
2022/06/08 11:21:42;;;;;;;0.00;0.00;;;;;;;;;;5016529;28;20101;-58
2022/06/08 11:24:26;;;;;;;0.00;0.00;;;;;;;;;;5010307;28;20109;-58
2022/06/08 11:27:13;;;;;;;0.00;0.00;;;;;;;;;;5024617;28;20046;-58
2022/06/08 11:29:44;;;;;;;0.00;0.00;;;;;;;;;;5016362;28;20525;-58
2022/06/08 11:32:23;;;;;;;0.00;0.00;;;;;;;;;;5017147;28;20117;-58
2022/06/08 11:34:50;;;;;;;0.00;0.00;;;;;;;;;;5015409;28;20528;-58
2022/06/08 11:37:25;;;;;;;0.00;0.00;;;;;;;;;;5012199;28;20125;-57
2022/06/08 11:40:10;;;;;;;0.00;0.00;;;;;;;;;;5020080;28;20409;-57
2022/06/08 11:42:45;;;;;;;0.00;0.00;;;;;;;;;;5010355;28;20054;-57
2022/06/08 11:45:20;;;;;;;0.05;0.05;;;;;;;;;;5008152;28;20734;-58
2022/06/08 11:47:48;;;;;;;0.00;0.00;;;;;;;;;;5015165;28;20596;-58
2022/06/08 11:50:17;;;;;;;0.00;0.00;;;;;;;;;;5015322;28;20497;-58
2022/06/08 11:52:45;;;;;;;0.00;0.00;;;;;;;;;;5016928;28;20058;-58
2022/06/08 11:55:25;;;;;;;0.00;0.00;;;;;;;;;;5043487;28;20140;-58
2022/06/08 11:57:54;;;;;;;0.00;0.00;;;;;;;;;;5029793;28;20053;-58
2022/06/08 12:00:21;;;;;;;0.00;0.00;;;;;;;;;;5015636;28;20050;-58
2022/06/08 12:03:00;;;;;;;0.00;0.00;;;;;;;;;;5011753;28;20085;-58
2022/06/08 12:05:26;;;;;;;;;;;;;;;;;;5015236;28;20050;-58
2022/06/08 12:07:59;;;;;;;0.00;0.00;;;;;;;;;;5024720;28;44902;-58
2022/06/08 12:10:26;;;;;;;0.00;0.00;;;;;;;;;;5031525;28;20055;-58
2022/06/08 12:12:54;;;;;;;0.00;0.00;;;;;;;;;;5024264;28;20160;-58
2022/06/08 12:15:39;;;;;;;0.00;0.00;;;;;;;;;;5022075;28;20050;-58
2022/06/08 12:18:26;;;;;;;0.00;0.00;;;;;;;;;;5014748;28;20185;-58
2022/06/08 12:21:06;;;;;;;0.00;0.00;;;;;;;;;;5023736;28;20216;-58
2022/06/08 12:23:43;;;;;;;0.00;0.00;;;;;;;;;;5011627;28;20054;-58
2022/06/08 12:26:17;;;;;;;0.00;0.00;;;;;;;;;;5010140;28;20101;-58
2022/06/08 12:28:45;;;;;;;0.00;0.00;;;;;;;;;;5014984;28;20057;-58
2022/06/08 12:31:23;;;;;;;0.00;0.00;;;;;;;;;;5025397;28;20109;-59
2022/06/08 12:33:50;;;;;;;0.00;0.00;;;;;;;;;;5023833;28;20141;-58
2022/06/08 12:36:27;;;;;;;0.00;0.00;;;;;;;;;;5034055;28;20497;-58
2022/06/08 12:39:08;;;;;;;0.05;0.05;;;;;;;;;;5027328;28;20549;-58
2022/06/08 12:41:42;;;;;;;0.00;0.00;;;;;;;;;;5019295;28;20054;-59
2022/06/08 12:44:18;;;;;;;0.00;0.00;;;;;;;;;;5011677;28;20054;-59
2022/06/08 12:46:50;;;;;;;0.00;0.00;;;;;;;;;;5023059;28;20054;-59
2022/06/08 12:49:16;;;;;;;0.00;0.00;;;;;;;;;;5011141;28;20094;-59
2022/06/08 12:51:43;;;;;;;0.00;0.00;;;;;;;;;;5010334;28;20136;-58
2022/06/08 12:54:11;;;;;;;0.00;0.00;;;;;;;;;;5008973;28;21032;-59
2022/06/08 12:56:39;;;;;;;0.00;0.00;;;;;;;;;;5011722;28;20181;-58
2022/06/08 12:59:05;;;;;;;0.00;0.00;;;;;;;;;;5015611;28;20124;-59
2022/06/08 13:01:32;;;;;;;0.00;0.00;;;;;;;;;;5018016;28;20109;-59
2022/06/08 13:03:58;;;;;;;0.00;0.00;;;;;;;;;;5018088;28;20062;-59
2022/06/08 13:06:25;;;;;;;0.52;0.52;;;;;;;;;;5019599;28;20101;-60
2022/06/08 13:08:52;;;;;;;0.00;0.00;;;;;;;;;;5016644;28;20152;-60
2022/06/08 13:11:20;;;;;;;0.00;0.00;;;;;;;;;;5019311;28;20109;-60
2022/06/08 13:13:47;;;;;;;0.00;0.00;;;;;;;;;;5009225;28;20085;-60
2022/06/08 13:16:15;;;;;;;0.00;0.00;;;;;;;;;;5007780;28;20572;-60
2022/06/08 13:18:41;;;;;;;;;;;;;;;;;;5019898;28;20047;-60
2022/06/08 13:21:09;;;;;;;0.00;0.00;;;;;;;;;;5027617;28;44933;-62
2022/06/08 13:23:36;;;;;;;0.00;0.00;;;;;;;;;;5012069;28;20057;-60
2022/06/08 13:26:02;;;;;;;0.00;0.00;;;;;;;;;;5008806;28;20054;-61
2022/06/08 13:28:31;;;;;;;0.00;0.00;;;;;;;;;;5009054;28;20144;-60
2022/06/08 13:30:58;;;;;;;0.00;0.00;;;;;;;;;;5047675;28;20059;-60
2022/06/08 13:36:16;;;;;;;0.00;0.00;;;;;;;;;;5028918;28;20534;-60
2022/06/08 13:38:45;;;;;;;0.00;0.00;;;;;;;;;;5028539;28;20677;-62
2022/06/08 13:41:11;;;;;;;0.00;0.00;;;;;;;;;;5023176;28;20116;-60
2022/06/08 13:43:37;;;;;;;0.00;0.00;;;;;;;;;;5011838;28;20493;-60
2022/06/08 13:46:07;;;;;;;0.00;0.00;;;;;;;;;;5027616;28;20042;-60
2022/06/08 13:48:34;;;;;;;0.00;0.00;;;;;;;;;;5028560;28;20606;-60
2022/06/08 13:51:00;;;;;;;0.00;0.00;;;;;;;;;;4991854;28;1063751;-60
2022/06/08 13:53:27;;;;;;;0.00;0.00;;;;;;;;;;5012796;28;20137;-61
2022/06/08 13:55:55;;;;;;;0.00;0.00;;;;;;;;;;5008848;28;20089;-61
2022/06/08 13:58:23;;;;;;;0.00;0.00;;;;;;;;;;5016773;28;20058;-61
2022/06/08 14:00:53;;;;;;;0.00;0.00;;;;;;;;;;5029231;28;20046;-61
2022/06/08 14:03:21;;;;;;;0.10;0.10;;;;;;;;;;5024593;28;20473;-61
2022/06/08 14:14:09;;;;;;;0.00;0.00;;;;;;;;;;5009448;28;20058;-61
2022/06/08 14:16:37;;;;;;;0.25;0.10;;;;;;;;;;5010072;28;20596;-61
2022/06/08 14:19:08;;;;;;;0.00;0.00;;;;;;;;;;5027379;28;20042;-61
2022/06/08 14:21:34;;;;;;;0.00;0.00;;;;;;;;;;5009145;28;20058;-61
2022/06/08 14:24:01;;;;;;;0.00;0.00;;;;;;;;;;5009613;28;20560;-61
2022/06/08 14:26:28;;;;;;;0.00;0.00;;;;;;;;;;5009448;28;20136;-61
2022/06/08 14:28:56;;;;;;;0.00;0.00;;;;;;;;;;5008740;28;20461;-61
2022/06/08 14:31:27;;;;;;;0.00;0.00;;;;;;;;;;5008344;28;20109;-61
2022/06/08 14:33:54;;;;;;;0.00;0.00;;;;;;;;;;5028815;28;20057;-61
2022/06/08 14:36:22;;;;;;;0.00;0.00;;;;;;;;;;5028889;28;20062;-61
2022/06/08 14:39:08;;;;;;;;;;;;;;;;;;5028456;28;20096;-61
2022/06/08 14:41:38;;;;;;;0.00;0.00;;;;;;;;;;5025534;28;46310;-61
2022/06/08 14:44:11;;;;;;;0.00;0.00;;;;;;;;;;5009042;28;20497;-61
2022/06/08 14:46:45;;;;;;;0.00;0.00;;;;;;;;;;5008860;28;20133;-61
2022/06/08 14:49:13;;;;;;;0.00;0.00;;;;;;;;;;5014027;28;20057;-61
2022/06/08 14:51:39;;;;;;;0.00;0.00;;;;;;;;;;5014691;28;20274;-61
2022/06/08 14:54:06;;;;;;;0.00;0.00;;;;;;;;;;5028633;28;20081;-61
2022/06/08 14:56:34;;;;;;;0.00;0.00;;;;;;;;;;5024628;28;20509;-61
2022/06/08 14:59:12;;;;;;;0.00;0.00;;;;;;;;;;5027975;28;20049;-61
2022/06/08 15:01:38;;;;;;;0.00;0.00;;;;;;;;;;5027990;28;20053;-61
2022/06/08 15:04:05;;;;;;;0.00;0.00;;;;;;;;;;5028735;28;20058;-61
2022/06/08 15:06:32;;;;;;;0.00;0.00;;;;;;;;;;5023981;28;20082;-61
2022/06/08 15:08:58;;;;;;;0.00;0.00;;;;;;;;;;5018125;28;20077;-61
2022/06/08 15:14:17;;;;;;;0.00;0.00;;;;;;;;;;5028680;28;20058;-61
2022/06/08 15:16:43;;;;;;;0.00;0.00;;;;;;;;;;5012058;28;20058;-61
2022/06/08 15:19:14;;;;;;;0.00;0.00;;;;;;;;;;5007540;28;20150;-61
2022/06/08 15:21:41;;;;;;;0.00;0.00;;;;;;;;;;5008411;28;20058;-61